Time;durP1;ratioP1;P1;durP2;ratioP2;P2;SDS_P1;SDS_P2;PMS_P1;PMS_P2;Temp;Humidity;BMP_temperature;BMP_pressure;BME280_temperature;BME280_humidity;BME280_pressure;Samples;Min_cycle;Max_cycle;Signal;HPM_P1;HPM_P2
2022/02/04 00:21:50;;;;;;;10.90;7.97;;;;;;;7.50;100.00;101154.75;10456778;28;20037;-73
2022/02/04 00:26:40;;;;;;;11.45;6.68;;;;;;;7.57;100.00;101151.22;10439821;28;20048;-74
2022/02/04 00:31:46;;;;;;;17.67;7.73;;;;;;;7.62;100.00;101150.69;10456611;28;20040;-74
2022/02/04 00:37:07;;;;;;;7.60;6.80;;;;;;;7.63;100.00;101147.00;10438885;28;20029;-73
2022/02/04 00:42:10;;;;;;;11.05;6.60;;;;;;;7.64;100.00;101137.91;10455011;28;20110;-74
2022/02/04 00:47:16;;;;;;;9.18;6.45;;;;;;;7.59;100.00;101118.69;10456219;28;20469;-74
2022/02/04 00:52:44;;;;;;;10.67;6.00;;;;;;;7.57;100.00;101132.38;10456127;28;20033;-74
2022/02/04 00:57:54;;;;;;;15.75;5.13;;;;;;;7.66;100.00;101128.63;10456181;28;20033;-74
2022/02/04 01:25:50;;;;;;;8.13;3.20;;;;;;;7.72;100.00;101110.06;10449198;28;20037;-74
2022/02/04 01:29:42;;;;;;;6.30;4.03;;;;;;;7.73;100.00;101106.38;10464085;28;20033;-74
2022/02/04 01:34:42;;;;;;;8.90;5.32;;;;;;;7.76;100.00;101062.91;10466929;28;20037;-73
2022/02/04 01:39:42;;;;;;;12.50;4.90;;;;;;;7.76;100.00;101089.88;10455948;28;20496;-73
2022/02/04 01:44:43;;;;;;;11.13;5.30;;;;;;;7.74;100.00;101083.78;10462998;28;20049;-74
2022/02/04 01:49:44;;;;;;;5.07;4.53;;;;;;;7.70;100.00;101080.63;10445265;28;20480;-74
2022/02/04 01:54:44;;;;;;;11.23;5.28;;;;;;;7.72;100.00;101086.66;10444624;28;20041;-74
2022/02/04 01:59:44;;;;;;;3.60;3.15;;;;;;;7.73;100.00;101071.34;10462396;28;20044;-74
2022/02/04 02:04:45;;;;;;;14.20;5.22;;;;;;;7.77;100.00;101078.88;10463090;28;20072;-74
2022/02/04 02:14:58;;;;;;;11.05;4.00;;;;;;;7.76;100.00;101066.44;10462196;28;20045;-74
2022/02/04 02:36:30;;;;;;;7.13;3.78;;;;;;;7.79;100.00;101049.06;10433451;28;20439;-81
2022/02/04 02:46:50;;;;;;;11.10;4.13;;;;;;;7.81;100.00;101037.06;10446266;28;20045;-81
2022/02/04 02:52:01;;;;;;;11.02;2.83;;;;;;;7.90;100.00;101033.31;10445721;28;20104;-81
2022/02/04 03:02:24;;;;;;;11.00;3.42;;;;;;;7.89;100.00;101017.34;10446264;28;20116;-81
2022/02/04 03:07:24;;;;;;;4.40;3.25;;;;;;;7.90;100.00;101008.22;10443517;28;20120;-81
2022/02/04 03:12:28;;;;;;;9.43;3.42;;;;;;;7.86;100.00;100996.13;10442936;28;20104;-81
2022/02/04 03:17:28;;;;;;;9.75;3.70;;;;;;;7.91;100.00;101009.91;10444085;28;20036;-81
2022/02/04 03:22:29;;;;;;;11.13;3.58;;;;;;;7.89;100.00;100999.31;10426511;28;20053;-81
2022/02/04 03:27:39;;;;;;;3.45;2.65;;;;;;;7.90;100.00;100992.88;10462781;28;20112;-80
2022/02/04 03:32:45;;;;;;;3.97;3.42;;;;;;;7.91;100.00;100993.72;10426938;28;20365;-81
2022/02/04 03:37:46;;;;;;;7.45;2.78;;;;;;;7.95;100.00;100992.38;10426072;28;20396;-81
2022/02/04 03:42:47;;;;;;;11.65;2.50;;;;;;;7.95;100.00;100983.44;10442814;28;20060;-80
2022/02/04 03:47:48;;;;;;;5.75;3.03;;;;;;;7.97;100.00;100982.22;10424478;28;20108;-80
2022/02/04 03:52:48;;;;;;;11.55;3.65;;;;;;;7.99;100.00;100990.97;10428542;28;20535;-80
2022/02/04 03:57:50;;;;;;;9.48;2.97;;;;;;;8.08;100.00;100976.44;10454177;28;20040;-80
2022/02/04 04:02:50;;;;;;;14.27;3.55;;;;;;;8.06;100.00;100966.84;10469586;28;20087;-81
2022/02/04 04:07:51;;;;;;;7.22;2.55;;;;;;;7.99;100.00;100963.19;10425382;28;20435;-80
2022/02/04 04:12:53;;;;;;;6.50;2.90;;;;;;;7.95;100.00;100951.91;10408308;28;20068;-80
2022/02/04 04:17:53;;;;;;;2.88;2.42;;;;;;;7.97;100.00;100962.50;10426193;28;20032;-80
2022/02/04 04:22:54;;;;;;;4.63;2.78;;;;;;;7.96;100.00;100960.84;10459252;28;20047;-81
2022/02/04 04:27:55;;;;;;;5.15;2.40;;;;;;;7.95;100.00;100961.88;10410624;28;20041;-81
2022/02/04 04:32:57;;;;;;;3.83;2.20;;;;;;;7.97;100.00;100949.88;10440519;28;20040;-81
2022/02/04 04:43:47;;;;;;;14.40;3.13;;;;;;;7.98;100.00;100956.94;10389552;28;20044;-81
2022/02/04 05:31:20;;;;;;;5.03;2.63;;;;;;;7.86;100.00;100899.91;10454821;28;20123;-81
2022/02/04 05:36:21;;;;;;;3.15;2.95;;;;;;;7.92;100.00;100898.34;10424623;28;20037;-76
2022/02/04 05:41:30;;;;;;;9.75;3.53;;;;;;;7.84;100.00;100879.53;10447015;28;20166;-79
2022/02/04 05:46:35;;;;;;;6.20;3.40;;;;;;;7.95;100.00;100894.47;10448157;28;20096;-79
2022/02/04 05:52:03;;;;;;;8.63;2.75;;;;;;;7.92;100.00;100877.63;10446532;28;20025;-79
2022/02/04 05:57:11;;;;;;;4.78;2.35;;;;;;;7.88;100.00;100870.91;10440823;28;20037;-79
2022/02/04 06:02:28;;;;;;;4.82;3.08;;;;;;;7.78;100.00;100874.84;10447260;28;20037;-77
2022/02/04 06:07:36;;;;;;;9.05;3.70;;;;;;;7.75;100.00;100876.03;10433948;28;20064;-79
2022/02/04 06:23:12;;;;;;;11.32;4.78;;;;;;;7.71;100.00;100863.94;10448063;28;20033;-79
2022/02/04 06:28:13;;;;;;;5.03;3.60;;;;;;;7.73;100.00;100858.41;10463755;28;20032;-79
2022/02/04 06:33:14;;;;;;;5.25;4.75;;;;;;;7.65;100.00;100857.41;10444783;28;20175;-79
2022/02/04 06:38:15;;;;;;;6.05;5.45;;;;;;;7.62;100.00;100862.31;10467595;28;20082;-79
2022/02/04 06:43:16;;;;;;;7.85;5.05;;;;;;;7.62;100.00;100856.94;10471339;28;20051;-78
2022/02/04 06:48:16;;;;;;;6.93;5.68;;;;;;;7.65;100.00;100838.53;10447040;28;20033;-79
2022/02/04 06:53:17;;;;;;;12.15;5.00;;;;;;;7.64;100.00;100833.34;10445135;28;20114;-79
2022/02/04 06:58:17;;;;;;;9.88;6.20;;;;;;;7.61;100.00;100850.72;10445627;28;20032;-79
2022/02/04 07:03:18;;;;;;;10.95;7.25;;;;;;;7.67;100.00;100831.13;10442882;28;20032;-80
2022/02/04 07:08:24;;;;;;;9.00;8.10;;;;;;;7.73;100.00;100836.84;10442846;28;20033;-79
2022/02/04 07:13:41;;;;;;;10.93;9.30;;;;;;;7.77;100.00;100840.84;10429351;28;20037;-80
2022/02/04 07:23:45;;;;;;;10.90;7.35;;;;;;;7.85;100.00;100825.44;10461393;28;20041;-79
2022/02/04 07:28:45;;;;;;;11.70;8.25;;;;;;;7.89;100.00;100840.22;10441958;28;20033;-79
2022/02/04 07:33:51;;;;;;;15.85;10.50;;;;;;;7.89;100.00;100837.53;10442030;28;20028;-79
2022/02/04 07:44:13;;;;;;;11.52;7.88;;;;;;;7.92;100.00;100812.06;10413984;28;20461;-79
2022/02/04 07:49:13;;;;;;;10.75;9.00;;;;;;;7.97;100.00;100820.44;10459229;28;20033;-79
2022/02/04 07:54:14;;;;;;;6.38;5.80;;;;;;;8.01;100.00;100810.09;10460235;28;20032;-79
2022/02/04 07:59:14;;;;;;;8.02;7.20;;;;;;;7.95;100.00;100800.91;10441745;28;20048;-78
2022/02/04 08:04:25;;;;;;;7.45;5.32;;;;;;;7.97;100.00;100798.84;10460133;28;20041;-79
2022/02/04 08:20:18;;;;;;;16.40;6.30;;;;;;;7.94;100.00;100758.78;10442546;28;20044;-79
2022/02/04 08:25:24;;;;;;;4.60;4.15;;;;;;;7.98;100.00;100753.88;10444359;28;20055;-79
2022/02/04 08:56:59;;;;;;;6.82;6.05;;;;;;;8.32;100.00;100737.97;10442313;28;20120;-78
2022/02/04 09:02:06;;;;;;;9.48;7.68;;;;;;;8.51;100.00;100706.91;10425573;28;20045;-80
2022/02/04 09:07:10;;;;;;;8.43;7.63;;;;;;;8.50;99.78;100702.53;10424297;28;20064;-80
2022/02/04 09:16:49;;;;;;;10.93;8.35;;;;;;;8.50;99.45;100705.25;10445670;28;20028;-78
2022/02/04 09:22:46;;;;;;;7.18;6.50;;;;;;;9.27;95.90;100693.81;10471019;28;20049;-78
2022/02/04 09:27:46;;;;;;;8.23;5.90;;;;;;;9.50;93.83;100693.56;10449791;28;20032;-79
2022/02/04 09:32:47;;;;;;;4.85;3.97;;;;;;;9.24;94.38;100693.34;10474433;28;20083;-79
2022/02/04 09:37:48;;;;;;;4.28;3.95;;;;;;;9.15;94.94;100692.63;10435846;28;20037;-79
2022/02/04 09:42:49;;;;;;;8.57;4.10;;;;;;;8.94;96.47;100690.78;10446980;28;20049;-79
2022/02/04 09:47:56;;;;;;;5.82;5.32;;;;;;;8.77;97.76;100681.25;10446121;28;20500;-79
2022/02/04 10:14:22;;;;;;;6.50;4.70;;;;;;;8.37;98.77;100654.59;10445868;28;20049;-78
2022/02/04 10:19:41;;;;;;;7.32;4.47;;;;;;;8.40;98.84;100656.13;10431248;28;20453;-78
2022/02/04 10:24:42;;;;;;;6.68;4.22;;;;;;;8.32;98.51;100634.59;10450935;28;20033;-78
2022/02/04 10:29:44;;;;;;;5.32;4.85;;;;;;;8.49;98.00;100636.09;10428480;28;20457;-79
2022/02/04 10:34:59;;;;;;;5.03;4.63;;;;;;;8.70;96.39;100615.56;10427701;28;20033;-79
2022/02/04 10:40:08;;;;;;;4.38;4.05;;;;;;;8.75;95.60;100605.84;10412726;28;20524;-79
2022/02/04 10:46:27;;;;;;;4.88;4.25;;;;;;;8.73;95.82;100597.09;10459547;28;20388;-79
2022/02/04 10:51:27;;;;;;;6.20;3.63;;;;;;;8.75;94.91;100597.75;10448381;28;20060;-79
2022/02/04 11:02:13;;;;;;;8.07;4.00;;;;;;;8.62;93.81;100581.44;10447401;28;20037;-78
2022/02/04 11:07:36;;;;;;;4.30;3.53;;;;;;;8.81;92.71;100569.97;10445846;28;20041;-79
2022/02/04 11:34:22;;;;;;;5.82;2.53;;;;;;;8.66;92.10;100522.50;10361940;28;20058;-78
2022/02/04 11:56:17;;;;;;;3.38;2.83;;;;;;;8.15;94.89;100491.88;10432370;28;20048;-78
2022/02/04 12:01:19;;;;;;;3.58;3.20;;;;;;;7.85;97.14;100477.66;10419928;28;20423;-79
2022/02/04 12:06:29;;;;;;;4.05;3.65;;;;;;;7.78;98.94;100484.00;10449055;28;20060;-78
2022/02/04 12:11:41;;;;;;;3.45;3.25;;;;;;;7.70;100.00;100471.47;10441896;28;20044;-78
2022/02/04 12:17:12;;;;;;;5.60;3.38;;;;;;;7.53;100.00;100454.69;10426792;28;20036;-80
2022/02/04 12:23:07;;;;;;;3.63;3.38;;;;;;;7.49;100.00;100441.78;10443159;28;20045;-82
2022/02/04 12:28:53;;;;;;;8.60;3.35;;;;;;;7.43;100.00;100427.19;10451361;28;20041;-81
2022/02/04 12:34:21;;;;;;;10.75;3.70;;;;;;;7.43;100.00;100421.81;10440077;28;20051;-81
2022/02/04 12:39:33;;;;;;;4.30;3.90;;;;;;;7.28;100.00;100405.69;10441784;28;20160;-81
2022/02/04 12:44:55;;;;;;;4.43;2.70;;;;;;;7.30;100.00;100409.00;10424169;28;20049;-81
2022/02/04 12:50:00;;;;;;;4.93;3.90;;;;;;;7.19;100.00;100394.19;10440928;28;20040;-82
2022/02/04 12:55:10;;;;;;;14.68;4.50;;;;;;;7.20;100.00;100393.16;10459125;28;20179;-81
2022/02/04 13:10:31;;;;;;;11.32;1.55;;;;;;;5.51;100.00;100525.13;10442815;28;20036;-81
2022/02/04 13:15:37;;;;;;;6.93;1.65;;;;;;;5.04;100.00;100541.19;10440545;28;20033;-81
2022/02/04 13:20:39;;;;;;;8.80;2.93;;;;;;;4.84;100.00;100543.41;10443153;28;20044;-81
2022/02/04 13:25:48;;;;;;;3.92;1.48;;;;;;;4.77;100.00;100545.91;10440928;28;20037;-81
2022/02/04 13:30:59;;;;;;;2.28;1.58;;;;;;;4.62;100.00;100551.09;10423546;28;20473;-82
2022/02/04 13:36:09;;;;;;;3.13;0.95;;;;;;;4.69;100.00;100570.06;10425323;28;20040;-81
2022/02/04 13:46:40;;;;;;;0.93;0.93;;;;;;;4.53;100.00;100592.34;10446136;28;20037;-81
2022/02/04 13:56:53;;;;;;;3.53;1.45;;;;;;;4.51;100.00;100614.97;10439514;28;20041;-81
2022/02/04 14:02:16;;;;;;;4.13;1.15;;;;;;;4.55;100.00;100629.72;10424914;28;20033;-81
2022/02/04 14:07:20;;;;;;;1.15;1.13;;;;;;;4.60;100.00;100627.38;10437938;28;20440;-82
2022/02/04 14:12:22;;;;;;;4.22;2.80;;;;;;;4.83;100.00;100644.50;10456252;28;20386;-81
2022/02/04 14:17:28;;;;;;;3.00;1.42;;;;;;;4.85;100.00;100652.38;10447195;28;20033;-82
2022/02/04 14:22:30;;;;;;;1.52;1.02;;;;;;;4.83;100.00;100668.66;10429925;28;20033;-82
2022/02/04 14:27:31;;;;;;;2.38;1.55;;;;;;;4.74;100.00;100676.84;10447247;28;20086;-82
2022/02/04 14:32:50;;;;;;;1.27;1.17;;;;;;;4.62;100.00;100695.94;10447318;28;20021;-82
2022/02/04 14:49:18;;;;;;;0.80;0.80;;;;;;;4.61;100.00;100718.41;10447734;28;20179;-82
2022/02/04 15:04:54;;;;;;;3.58;1.17;;;;;;;4.53;100.00;100795.28;10432690;28;20488;-82
2022/02/04 15:10:03;;;;;;;2.63;1.45;;;;;;;4.42;100.00;100797.25;10459557;28;20083;-81
2022/02/04 15:15:05;;;;;;;4.32;1.92;;;;;;;4.46;100.00;100827.25;10448543;28;20036;-81
2022/02/04 15:20:06;;;;;;;1.65;1.55;;;;;;;4.51;100.00;100843.72;10432612;28;20051;-82
2022/02/04 15:25:16;;;;;;;7.65;1.55;;;;;;;4.57;100.00;100852.97;10428020;28;20057;-82
2022/02/04 15:30:25;;;;;;;7.32;2.00;;;;;;;4.59;100.00;100849.13;10437873;28;20036;-82
2022/02/04 15:35:30;;;;;;;3.65;1.75;;;;;;;4.76;100.00;100868.00;10470372;28;20045;-83
2022/02/04 15:40:30;;;;;;;3.42;2.15;;;;;;;4.71;100.00;100891.78;10479637;28;20061;-83
2022/02/04 15:56:12;;;;;;;11.02;3.65;;;;;;;4.17;100.00;100927.59;10444281;28;20037;-82
2022/02/04 16:01:17;;;;;;;5.68;2.75;;;;;;;4.40;100.00;100921.75;10339174;28;20046;-82
2022/02/04 16:06:20;;;;;;;6.57;3.72;;;;;;;4.20;100.00;100954.09;10317583;28;20046;-82
2022/02/04 16:16:37;;;;;;;11.90;4.03;;;;;;;3.78;100.00;100986.03;10355876;28;20098;-83
2022/02/04 16:31:53;;;;;;;8.68;3.65;;;;;;;4.00;100.00;101016.06;10437780;28;20044;-83
2022/02/04 16:37:01;;;;;;;6.75;3.55;;;;;;;3.91;100.00;101026.69;10451374;28;20041;-83
2022/02/04 16:42:10;;;;;;;11.52;4.45;;;;;;;4.05;100.00;101045.91;10466091;28;20358;-83
2022/02/04 16:47:34;;;;;;;7.47;5.28;;;;;;;4.12;100.00;101047.00;10465712;28;20480;-84
2022/02/04 16:52:52;;;;;;;16.33;5.35;;;;;;;4.23;100.00;101062.00;10449738;28;20036;-83
2022/02/04 17:03:54;;;;;;;12.07;4.75;;;;;;;4.28;100.00;101059.72;10432127;28;20041;-83
2022/02/04 17:09:09;;;;;;;10.30;2.63;;;;;;;4.42;100.00;101070.75;10424178;28;20131;-84
2022/02/04 17:20:48;;;;;;;11.77;4.57;;;;;;;4.64;100.00;101090.06;10471070;28;20037;-83
2022/02/04 17:26:10;;;;;;;11.95;6.05;;;;;;;4.66;100.00;101102.31;10471672;28;20060;-84
2022/02/04 17:31:17;;;;;;;13.52;6.10;;;;;;;4.79;100.00;101115.34;10467790;28;20082;-84
2022/02/04 17:36:40;;;;;;;16.55;6.07;;;;;;;4.93;100.00;101129.19;10458070;28;20126;-84
2022/02/04 17:41:43;;;;;;;15.05;6.15;;;;;;;5.02;100.00;101136.31;10431438;28;20148;-84
2022/02/04 17:47:14;;;;;;;17.45;5.78;;;;;;;5.02;100.00;101141.69;10439612;28;20114;-84
2022/02/04 17:52:44;;;;;;;8.95;5.03;;;;;;;4.93;100.00;101145.31;10426410;28;20524;-84
2022/02/04 18:08:21;;;;;;;16.17;6.80;;;;;;;5.22;100.00;101158.44;10466705;28;20124;-84
2022/02/04 18:13:24;;;;;;;16.17;4.72;;;;;;;5.27;99.62;101167.72;10441280;28;20036;-84
2022/02/04 18:18:27;;;;;;;14.45;4.90;;;;;;;5.13;97.59;101187.06;10429170;28;20366;-84
2022/02/04 18:23:31;;;;;;;11.18;4.25;;;;;;;5.03;97.13;101189.84;10428914;28;20072;-84
2022/02/04 18:28:32;;;;;;;13.35;4.55;;;;;;;5.18;97.55;101203.56;10446883;28;20041;-84
2022/02/04 18:33:35;;;;;;;12.18;5.30;;;;;;;5.28;97.89;101217.72;10445007;28;20507;-84
2022/02/04 18:38:49;;;;;;;14.30;6.13;;;;;;;5.34;97.49;101217.13;10412376;28;20409;-84
2022/02/04 18:44:06;;;;;;;11.30;4.30;;;;;;;5.43;97.73;101207.28;10444930;28;20468;-84
2022/02/04 19:05:19;;;;;;;3.50;2.60;;;;;;;5.09;92.78;101220.59;10446243;28;20044;-84
2022/02/04 19:10:22;;;;;;;9.07;2.88;;;;;;;4.98;92.97;101228.84;10449903;28;20431;-83
2022/02/04 19:20:51;;;;;;;7.10;3.28;;;;;;;5.01;94.41;101240.16;10443841;28;20477;-83
2022/02/04 19:25:57;;;;;;;11.23;3.42;;;;;;;5.08;94.87;101254.66;10413245;28;20040;-83
2022/02/04 19:31:00;;;;;;;11.77;4.03;;;;;;;5.24;95.74;101267.38;10443794;28;20029;-83
2022/02/04 19:36:04;;;;;;;10.65;2.83;;;;;;;5.30;94.13;101284.72;10443055;28;20075;-83
2022/02/04 19:41:20;;;;;;;4.65;2.63;;;;;;;5.21;92.08;101265.00;10461140;28;20037;-82
2022/02/04 19:46:32;;;;;;;5.70;3.05;;;;;;;5.20;92.56;101284.81;10472202;28;20056;-82
2022/02/04 19:51:41;;;;;;;11.38;4.57;;;;;;;5.28;92.66;101279.50;10429992;28;20041;-83
2022/02/04 20:29:31;;;;;;;10.75;3.53;;;;;;;5.07;92.53;101343.38;10470138;28;20029;-82
2022/02/04 20:34:36;;;;;;;2.40;2.20;;;;;;;4.95;92.47;101349.97;10443532;28;20033;-83
2022/02/04 20:40:16;;;;;;;7.93;3.45;;;;;;;4.82;91.35;101359.19;10436939;28;20067;-82
2022/02/04 20:45:28;;;;;;;20.70;4.10;;;;;;;4.83;91.25;101362.72;10443064;28;20073;-81
2022/02/04 20:50:50;;;;;;;13.60;3.55;;;;;;;4.84;91.48;101362.56;10472187;28;20290;-81
2022/02/04 20:55:59;;;;;;;13.20;4.17;;;;;;;4.80;91.05;101377.28;10461468;28;20033;-81
2022/02/04 21:01:20;;;;;;;14.80;3.60;;;;;;;4.83;90.74;101385.03;10448441;28;20056;-81
2022/02/04 21:06:30;;;;;;;4.72;2.78;;;;;;;4.89;91.58;101395.19;10457116;28;20072;-83
2022/02/04 21:17:20;;;;;;;6.07;2.67;;;;;;;4.78;90.13;101405.25;10485990;28;20033;-80
2022/02/04 21:22:24;;;;;;;9.98;2.53;;;;;;;4.87;90.61;101415.09;10471706;28;20469;-80
2022/02/04 21:27:29;;;;;;;9.23;2.90;;;;;;;5.06;92.40;101420.38;10445268;28;20053;-81
2022/02/04 21:32:30;;;;;;;17.98;3.20;;;;;;;5.05;90.96;101432.13;10443933;28;20037;-80
2022/02/04 21:37:32;;;;;;;3.72;3.08;;;;;;;4.92;90.45;101433.44;10454555;28;20124;-82
2022/02/04 21:42:51;;;;;;;17.02;3.45;;;;;;;4.90;90.47;101428.22;10484871;28;20027;-81
2022/02/04 21:48:02;;;;;;;7.55;3.47;;;;;;;4.82;88.83;101436.19;10463365;28;20049;-81
2022/02/04 21:53:12;;;;;;;10.63;2.80;;;;;;;4.87;89.43;101448.13;10474474;28;20115;-81
2022/02/04 21:58:14;;;;;;;12.57;3.65;;;;;;;4.91;90.36;101456.72;10480307;28;20043;-83
2022/02/04 22:03:18;;;;;;;10.35;3.60;;;;;;;5.02;89.28;101453.03;10434405;28;20088;-82
2022/02/04 22:08:34;;;;;;;6.68;3.33;;;;;;;5.24;89.94;101475.97;10439145;28;20123;-81
2022/02/04 22:24:19;;;;;;;7.00;3.22;;;;;;;5.06;88.62;101473.22;10453887;28;20111;-83
2022/02/04 22:29:22;;;;;;;12.15;3.70;;;;;;;5.26;89.91;101482.03;10463550;28;20357;-81
2022/02/04 22:50:28;;;;;;;7.10;2.55;;;;;;;4.94;86.11;101498.53;10471841;28;20463;-81
2022/02/04 22:56:27;;;;;;;11.48;3.22;;;;;;;4.98;85.84;101505.31;10467230;28;20089;-82
2022/02/04 23:01:06;;;;;;;4.53;3.37;;;;;;;4.96;87.68;101502.78;10473477;28;20045;-81
2022/02/04 23:06:13;;;;;;;17.30;3.30;;;;;;;4.89;86.86;101512.41;10472132;28;20037;-81
2022/02/04 23:11:27;;;;;;;28.40;4.75;;;;;;;4.85;87.30;101517.22;10470716;28;20059;-81
2022/02/04 23:16:47;;;;;;;7.43;3.67;;;;;;;4.85;88.00;101524.41;10451898;28;20021;-81
2022/02/04 23:22:09;;;;;;;14.05;2.55;;;;;;;4.81;88.46;101517.66;10480583;28;20029;-81
2022/02/04 23:27:24;;;;;;;6.90;3.72;;;;;;;4.79;89.14;101535.75;10455514;28;20371;-81
2022/02/04 23:54:23;;;;;;;9.57;3.17;;;;;;;4.97;89.20;101574.25;10463566;28;20385;-80
